createdAt,value
2022-10-31T00:00:49.092Z,13.50
2022-10-31T00:03:17.113Z,13.40
2022-10-31T00:05:49.923Z,13.40
2022-10-31T00:08:17.674Z,13.40
2022-10-31T00:10:45.702Z,13.40
2022-10-31T00:13:13.579Z,13.30
2022-10-31T00:15:41.246Z,13.30
2022-10-31T00:18:10.086Z,13.30
2022-10-31T00:20:37.721Z,13.30
2022-10-31T00:23:05.324Z,13.30
2022-10-31T00:25:36.724Z,13.20
2022-10-31T00:28:05.245Z,13.20
2022-10-31T00:30:32.055Z,13.20
2022-10-31T00:32:59.280Z,13.10
2022-10-31T00:35:26.232Z,13.10
2022-10-31T00:37:54.017Z,13.10
2022-10-31T00:40:23.476Z,13.00
2022-10-31T00:42:50.203Z,13.00
2022-10-31T00:45:17.023Z,13.00
2022-10-31T00:47:43.803Z,13.00
2022-10-31T00:50:10.489Z,12.90
2022-10-31T00:52:37.195Z,12.90
2022-10-31T00:55:04.190Z,12.90
2022-10-31T00:57:30.893Z,12.80
2022-10-31T00:59:57.679Z,12.90
2022-10-31T01:02:24.629Z,12.80
2022-10-31T01:04:51.442Z,12.70
2022-10-31T01:07:18.132Z,12.80
2022-10-31T01:09:44.868Z,12.70
2022-10-31T01:12:12.624Z,12.70
2022-10-31T01:14:39.332Z,12.70
2022-10-31T01:17:06.111Z,12.60
2022-10-31T01:19:32.929Z,12.60
2022-10-31T01:21:59.614Z,12.60
2022-10-31T01:24:26.294Z,12.60
2022-10-31T01:26:53.049Z,12.60
2022-10-31T01:29:19.741Z,12.50
2022-10-31T01:31:46.466Z,12.50
2022-10-31T01:34:17.041Z,12.50
2022-10-31T01:36:45.962Z,12.40
2022-10-31T01:39:14.575Z,12.40
2022-10-31T01:41:46.866Z,12.30
2022-10-31T01:44:16.551Z,12.40
2022-10-31T01:46:53.722Z,12.30
2022-10-31T01:49:28.780Z,12.30
2022-10-31T01:51:59.654Z,12.30
2022-10-31T01:54:29.242Z,12.30
2022-10-31T01:56:57.242Z,12.20
2022-10-31T01:59:24.813Z,12.20
2022-10-31T02:01:52.275Z,12.20
2022-10-31T02:04:20.117Z,12.20
2022-10-31T02:06:49.800Z,12.20
2022-10-31T02:09:17.811Z,12.10
2022-10-31T02:11:45.236Z,12.10
2022-10-31T02:14:12.081Z,12.10
2022-10-31T02:16:38.831Z,12.10
2022-10-31T02:19:07.646Z,12.00
2022-10-31T02:21:48.849Z,12.10
2022-10-31T02:24:18.558Z,12.00
2022-10-31T02:27:03.435Z,12.00
2022-10-31T02:30:01.354Z,12.00
2022-10-31T02:32:50.036Z,11.90
2022-10-31T02:35:42.683Z,11.90
2022-10-31T02:38:09.322Z,11.90
2022-10-31T02:40:54.395Z,11.80
2022-10-31T02:43:33.273Z,11.90
2022-10-31T02:46:06.754Z,11.80
2022-10-31T02:48:36.189Z,11.80
2022-10-31T02:51:04.455Z,11.80
2022-10-31T02:53:37.938Z,11.70
2022-10-31T02:56:17.684Z,11.70
2022-10-31T02:58:50.756Z,11.70
2022-10-31T03:01:26.552Z,11.70
2022-10-31T03:04:08.389Z,11.70
2022-10-31T03:06:42.550Z,11.60
2022-10-31T03:09:13.736Z,11.60
2022-10-31T03:12:04.734Z,11.60
2022-10-31T03:14:54.716Z,11.50
2022-10-31T03:17:53.555Z,11.50
2022-10-31T03:20:25.306Z,11.50
2022-10-31T03:22:52.375Z,11.50
2022-10-31T03:25:19.459Z,11.40
2022-10-31T03:27:47.301Z,11.50
2022-10-31T03:30:14.554Z,11.40
2022-10-31T03:32:50.186Z,11.40
2022-10-31T03:35:19.160Z,11.30
2022-10-31T03:37:46.699Z,11.30
2022-10-31T03:40:14.261Z,11.30
2022-10-31T03:42:44.400Z,11.30
2022-10-31T03:45:13.027Z,11.30
2022-10-31T03:47:39.980Z,11.20
2022-10-31T03:50:08.595Z,11.20
2022-10-31T03:52:57.096Z,11.20
2022-10-31T03:55:28.597Z,11.20
2022-10-31T03:58:02.429Z,11.20
2022-10-31T04:00:31.060Z,11.10
2022-10-31T04:03:01.189Z,11.10
2022-10-31T04:05:28.908Z,11.00
2022-10-31T04:07:56.772Z,11.10
2022-10-31T04:10:28.653Z,11.00
2022-10-31T04:13:04.899Z,11.00
2022-10-31T04:15:32.213Z,11.00
2022-10-31T04:18:00.708Z,11.00
2022-10-31T04:20:36.052Z,10.90
2022-10-31T04:23:03.487Z,10.90
2022-10-31T04:25:30.242Z,10.80
2022-10-31T04:27:57.421Z,10.80
2022-10-31T04:30:24.385Z,10.80
2022-10-31T04:32:51.070Z,10.80
2022-10-31T04:35:17.807Z,10.80
2022-10-31T04:37:44.489Z,10.70
2022-10-31T04:40:11.724Z,10.70
2022-10-31T04:42:38.471Z,10.70
2022-10-31T04:45:05.821Z,10.70
2022-10-31T04:47:34.385Z,10.60
2022-10-31T04:50:01.926Z,10.60
2022-10-31T04:52:29.081Z,10.60
2022-10-31T04:54:55.894Z,10.60
2022-10-31T04:57:22.701Z,10.50
2022-10-31T04:59:49.454Z,10.50
2022-10-31T05:02:16.478Z,10.50
2022-10-31T05:04:43.361Z,10.50
2022-10-31T05:07:10.098Z,10.50
2022-10-31T05:09:36.813Z,10.40
2022-10-31T05:12:03.647Z,10.40
2022-10-31T05:14:30.411Z,10.40
2022-10-31T05:16:57.083Z,10.40
2022-10-31T05:19:23.902Z,10.30
2022-10-31T05:21:50.649Z,10.30
2022-10-31T05:24:17.385Z,10.30
2022-10-31T05:26:44.240Z,10.30
2022-10-31T05:29:10.993Z,10.30
2022-10-31T05:31:37.680Z,10.30
2022-10-31T05:34:06.854Z,10.20
2022-10-31T05:36:33.578Z,10.20
2022-10-31T05:39:00.284Z,10.20
2022-10-31T05:41:26.970Z,10.20
2022-10-31T05:43:53.677Z,10.20
2022-10-31T05:46:20.483Z,10.20
2022-10-31T05:48:47.194Z,10.10
2022-10-31T05:51:13.951Z,10.10
2022-10-31T05:53:40.642Z,10.10
2022-10-31T05:56:07.637Z,10.00
2022-10-31T05:58:37.330Z,10.00
2022-10-31T06:01:04.110Z,10.00
2022-10-31T06:03:30.887Z,10.00
2022-10-31T06:05:57.672Z,10.00
2022-10-31T06:08:24.517Z,10.00
2022-10-31T06:10:51.324Z,10.00
2022-10-31T06:13:18.040Z,10.00
2022-10-31T06:15:44.785Z,10.00
2022-10-31T06:18:11.491Z,10.10
2022-10-31T06:20:38.234Z,10.10
2022-10-31T06:23:05.672Z,10.20
2022-10-31T06:25:32.619Z,10.20
2022-10-31T06:27:59.394Z,10.20
2022-10-31T06:30:26.360Z,10.20
2022-10-31T06:32:53.339Z,10.20
2022-10-31T06:35:20.228Z,10.20
2022-10-31T06:37:54.337Z,10.20
2022-10-31T06:40:21.554Z,10.20
2022-10-31T06:42:48.335Z,10.20
2022-10-31T06:45:15.092Z,10.20
2022-10-31T06:48:10.980Z,10.20
2022-10-31T06:50:28.484Z,10.20
2022-10-31T06:52:57.514Z,10.20
2022-10-31T06:55:25.492Z,10.20
2022-10-31T06:58:02.999Z,10.30
2022-10-31T07:00:31.215Z,10.30
2022-10-31T07:03:00.125Z,10.30
2022-10-31T07:05:27.593Z,10.30
2022-10-31T07:07:58.971Z,10.40
2022-10-31T07:10:27.540Z,10.40
2022-10-31T07:12:58.669Z,10.40
2022-10-31T07:15:26.989Z,10.50
2022-10-31T07:17:54.137Z,10.50
2022-10-31T07:20:21.044Z,10.50
2022-10-31T07:22:59.011Z,10.60
2022-10-31T07:25:25.819Z,10.60
2022-10-31T07:27:55.527Z,10.60
2022-10-31T07:30:22.403Z,10.60
2022-10-31T07:32:50.594Z,10.70
2022-10-31T07:35:20.265Z,10.60
2022-10-31T07:37:47.295Z,10.60
2022-10-31T07:40:14.056Z,10.60
2022-10-31T07:42:42.996Z,10.70
2022-10-31T07:45:11.929Z,10.70
2022-10-31T07:47:42.421Z,10.70
2022-10-31T07:50:11.325Z,10.80
2022-10-31T07:52:38.169Z,10.80
2022-10-31T07:55:06.153Z,10.80
2022-10-31T07:57:34.709Z,10.80
2022-10-31T08:00:01.865Z,10.70
2022-10-31T08:02:28.599Z,10.80
2022-10-31T08:04:58.624Z,10.80
2022-10-31T08:07:28.121Z,10.80
2022-10-31T08:09:55.446Z,10.90
2022-10-31T08:12:22.714Z,10.90
2022-10-31T08:14:49.477Z,11.00
2022-10-31T08:17:16.365Z,11.00
2022-10-31T08:19:43.135Z,11.00
2022-10-31T08:22:09.843Z,11.10
2022-10-31T08:24:36.612Z,11.20
2022-10-31T08:27:03.495Z,11.10
2022-10-31T08:29:30.255Z,11.00
2022-10-31T08:31:58.958Z,11.00
2022-10-31T08:34:25.669Z,11.10
2022-10-31T08:36:53.069Z,11.10
2022-10-31T08:39:19.861Z,11.20
2022-10-31T08:41:46.574Z,11.20
2022-10-31T08:44:13.321Z,11.20
2022-10-31T08:46:40.055Z,11.30
2022-10-31T08:49:06.838Z,11.40
2022-10-31T08:51:36.710Z,11.40
2022-10-31T08:54:03.542Z,11.40
2022-10-31T08:56:30.858Z,11.50
2022-10-31T08:58:57.915Z,11.50
2022-10-31T09:01:24.824Z,11.60
2022-10-31T09:03:51.680Z,11.70
2022-10-31T09:06:18.498Z,11.80
2022-10-31T09:08:45.316Z,11.70
2022-10-31T09:11:12.128Z,11.70
2022-10-31T09:13:41.276Z,11.80
2022-10-31T09:16:08.571Z,11.80
2022-10-31T09:18:35.426Z,11.90
2022-10-31T09:21:02.169Z,11.80
2022-10-31T09:23:28.937Z,11.90
2022-10-31T09:25:56.186Z,11.90
2022-10-31T09:28:24.534Z,12.60
2022-10-31T09:30:53.613Z,12.90
2022-10-31T09:33:20.981Z,13.00
2022-10-31T09:35:47.936Z,13.00
2022-10-31T09:38:22.188Z,12.90
2022-10-31T09:41:20.805Z,12.90
2022-10-31T09:44:18.247Z,12.90
2022-10-31T09:46:59.273Z,12.80
2022-10-31T09:49:35.263Z,12.80
2022-10-31T09:52:24.407Z,12.80
2022-10-31T09:55:14.282Z,12.80
2022-10-31T09:57:42.623Z,12.80
2022-10-31T10:00:17.670Z,12.70
2022-10-31T10:02:49.135Z,12.80
2022-10-31T10:05:22.076Z,12.80
2022-10-31T10:08:02.838Z,12.90
2022-10-31T10:10:54.560Z,12.90
2022-10-31T10:13:23.937Z,12.90
2022-10-31T10:15:58.542Z,12.90
2022-10-31T10:18:59.884Z,12.90
2022-10-31T10:21:35.780Z,12.90
2022-10-31T10:24:53.943Z,13.00
2022-10-31T10:27:46.710Z,13.00
2022-10-31T10:30:19.227Z,13.00
2022-10-31T10:32:52.232Z,13.00
2022-10-31T10:35:34.726Z,13.00
2022-10-31T10:38:23.269Z,13.10
2022-10-31T10:40:51.027Z,13.10
2022-10-31T10:43:26.705Z,13.10
2022-10-31T10:46:30.673Z,13.20
2022-10-31T10:49:16.140Z,13.20
2022-10-31T10:52:42.023Z,13.40
2022-10-31T10:55:41.868Z,13.40
2022-10-31T10:58:27.533Z,13.50
2022-10-31T11:03:42.125Z,13.80
2022-10-31T11:06:27.139Z,13.90
2022-10-31T11:08:54.434Z,14.00
2022-10-31T11:11:28.942Z,14.00
2022-10-31T11:14:07.338Z,14.00
2022-10-31T11:16:40.999Z,14.10
2022-10-31T11:19:13.168Z,14.10
2022-10-31T11:21:39.874Z,14.20
2022-10-31T11:24:09.632Z,14.30
2022-10-31T11:26:39.095Z,14.30
2022-10-31T11:29:06.797Z,14.40
2022-10-31T11:31:35.513Z,14.40
2022-10-31T11:34:05.767Z,14.50
2022-10-31T11:36:38.776Z,14.50
2022-10-31T11:39:07.422Z,14.50
2022-10-31T11:41:36.721Z,14.50
2022-10-31T11:44:11.455Z,14.60
2022-10-31T11:46:40.327Z,14.60
2022-10-31T11:49:36.487Z,14.60
2022-10-31T11:52:07.889Z,14.60
2022-10-31T11:54:48.687Z,14.70
2022-10-31T11:57:49.358Z,14.80
2022-10-31T12:00:34.048Z,14.80
2022-10-31T12:03:23.948Z,14.90
2022-10-31T12:05:54.177Z,14.90
2022-10-31T12:08:20.971Z,14.90
2022-10-31T12:10:58.424Z,15.00
2022-10-31T12:13:33.681Z,15.00
2022-10-31T12:16:14.017Z,15.00
2022-10-31T12:19:05.477Z,15.10
2022-10-31T12:21:53.441Z,15.10
2022-10-31T12:24:52.488Z,15.10
2022-10-31T12:27:32.317Z,15.20
2022-10-31T12:30:11.916Z,15.20
2022-10-31T12:33:14.107Z,15.30
2022-10-31T12:36:15.421Z,15.30
2022-10-31T12:39:07.894Z,15.40
2022-10-31T12:41:44.449Z,15.40
2022-10-31T12:44:17.372Z,15.50
2022-10-31T12:47:05.219Z,15.50
2022-10-31T12:49:53.692Z,15.60
2022-10-31T12:52:41.138Z,15.60
2022-10-31T12:55:27.310Z,15.70
2022-10-31T12:58:00.024Z,15.70
2022-10-31T13:00:30.410Z,15.80
2022-10-31T13:03:24.626Z,15.80
2022-10-31T13:05:59.249Z,15.80
2022-10-31T13:08:35.727Z,15.80
2022-10-31T13:11:15.731Z,15.90
2022-10-31T13:13:52.445Z,15.90
2022-10-31T13:16:36.372Z,15.90
2022-10-31T13:19:11.513Z,15.90
2022-10-31T13:21:56.828Z,16.00
2022-10-31T13:24:37.951Z,16.00
2022-10-31T13:27:28.083Z,16.10
2022-10-31T13:30:03.465Z,16.10
2022-10-31T13:32:39.372Z,16.20
2022-10-31T13:35:12.051Z,16.20
2022-10-31T13:37:48.813Z,16.30
2022-10-31T13:40:38.527Z,16.40
2022-10-31T13:43:27.106Z,16.40
2022-10-31T13:45:55.509Z,16.60
2022-10-31T13:48:28.021Z,16.70
2022-10-31T13:51:03.243Z,16.80
2022-10-31T13:53:57.677Z,16.80
2022-10-31T13:56:26.304Z,16.90
2022-10-31T13:59:10.655Z,17.10
2022-10-31T14:01:38.173Z,17.20
2022-10-31T14:04:14.744Z,17.30
2022-10-31T14:06:54.399Z,17.40
2022-10-31T14:09:27.482Z,17.60
2022-10-31T14:11:54.643Z,17.60
2022-10-31T14:14:22.206Z,17.80
2022-10-31T14:16:55.876Z,17.80
2022-10-31T14:19:23.097Z,17.90
2022-10-31T14:21:50.851Z,18.00
2022-10-31T14:24:23.626Z,18.10
2022-10-31T14:26:55.910Z,18.10
2022-10-31T14:29:25.683Z,18.20
2022-10-31T14:31:55.057Z,18.20
2022-10-31T14:34:36.286Z,18.20
2022-10-31T14:37:38.635Z,18.20
2022-10-31T14:40:42.408Z,18.10
2022-10-31T14:43:29.204Z,18.20
2022-10-31T14:46:36.950Z,18.20
2022-10-31T14:49:19.728Z,18.30
2022-10-31T14:51:48.501Z,18.30
2022-10-31T14:54:24.375Z,18.30
2022-10-31T14:56:54.572Z,18.30
2022-10-31T14:59:25.711Z,18.40
2022-10-31T15:01:57.556Z,18.40
2022-10-31T15:04:27.195Z,18.40
2022-10-31T15:07:01.691Z,18.30
2022-10-31T15:09:39.121Z,18.30
2022-10-31T15:12:30.724Z,18.30
2022-10-31T15:14:59.425Z,18.30
2022-10-31T15:17:27.181Z,18.30
2022-10-31T15:19:54.400Z,18.50
2022-10-31T15:22:24.454Z,18.60
2022-10-31T15:24:57.106Z,18.60
2022-10-31T15:27:24.952Z,18.60
2022-10-31T15:29:56.988Z,18.50
2022-10-31T15:32:28.879Z,18.30
2022-10-31T15:34:57.663Z,18.30
2022-10-31T15:37:26.035Z,18.30
2022-10-31T15:39:53.383Z,18.50
2022-10-31T15:42:26.896Z,18.60
2022-10-31T15:44:59.540Z,18.60
2022-10-31T15:47:26.369Z,18.50
2022-10-31T15:49:58.319Z,18.40
2022-10-31T15:52:48.517Z,18.40
2022-10-31T15:55:16.941Z,18.30
2022-10-31T15:57:45.325Z,18.30
2022-10-31T16:00:41.615Z,18.30
2022-10-31T16:03:24.981Z,18.20
2022-10-31T16:05:53.779Z,18.10
2022-10-31T16:08:29.743Z,18.20
2022-10-31T16:11:08.898Z,18.20
2022-10-31T16:13:42.526Z,18.10
2022-10-31T16:16:33.979Z,18.10
2022-10-31T16:19:04.823Z,18.00
2022-10-31T16:21:34.855Z,18.00
2022-10-31T16:24:17.365Z,18.00
2022-10-31T16:26:51.655Z,17.90
2022-10-31T16:29:45.045Z,17.90
2022-10-31T16:32:54.615Z,17.90
2022-10-31T16:35:32.303Z,17.90
2022-10-31T16:37:59.086Z,17.80
2022-10-31T16:40:26.302Z,17.80
2022-10-31T16:42:53.355Z,17.70
2022-10-31T16:45:22.813Z,17.70
2022-10-31T16:47:50.343Z,17.70
2022-10-31T16:50:27.583Z,17.60
2022-10-31T16:53:12.867Z,17.60
2022-10-31T16:55:59.520Z,17.50
2022-10-31T16:58:30.576Z,17.50
2022-10-31T17:00:57.831Z,17.40
2022-10-31T17:03:24.641Z,17.40
2022-10-31T17:05:51.377Z,17.30
2022-10-31T17:08:18.218Z,17.30
2022-10-31T17:10:46.664Z,17.30
2022-10-31T17:13:21.306Z,17.30
2022-10-31T17:15:51.052Z,17.30
2022-10-31T17:18:22.790Z,17.30
2022-10-31T17:21:00.248Z,17.20
2022-10-31T17:23:27.848Z,17.20
2022-10-31T17:25:56.262Z,17.20
2022-10-31T17:28:23.119Z,17.10
2022-10-31T17:30:49.982Z,17.10
2022-10-31T17:33:17.389Z,17.10
2022-10-31T17:35:47.180Z,17.10
2022-10-31T17:38:13.925Z,17.10
2022-10-31T17:40:42.241Z,17.00
2022-10-31T17:43:10.273Z,16.90
2022-10-31T17:45:39.379Z,16.90
2022-10-31T17:48:06.405Z,16.90
2022-10-31T17:50:33.295Z,16.80
2022-10-31T17:53:00.492Z,16.80
2022-10-31T17:55:27.450Z,16.80
2022-10-31T17:57:54.207Z,16.80
2022-10-31T18:00:23.940Z,16.80
2022-10-31T18:02:51.434Z,16.70
2022-10-31T18:05:18.404Z,16.70
2022-10-31T18:07:45.486Z,16.70
2022-10-31T18:10:12.215Z,16.60
2022-10-31T18:12:39.272Z,16.60
2022-10-31T18:15:06.635Z,16.50
2022-10-31T18:17:35.824Z,16.60
2022-10-31T18:20:05.270Z,16.50
2022-10-31T18:22:32.049Z,16.50
2022-10-31T18:25:02.010Z,16.40
2022-10-31T18:27:29.442Z,16.40
2022-10-31T18:29:56.490Z,16.40
2022-10-31T18:32:23.293Z,16.30
2022-10-31T18:34:49.992Z,16.30
2022-10-31T18:37:16.707Z,16.30
2022-10-31T18:39:43.583Z,16.30
2022-10-31T18:42:10.358Z,16.20
2022-10-31T18:44:38.267Z,16.20
2022-10-31T18:47:05.191Z,16.20
2022-10-31T18:49:33.584Z,16.20
2022-10-31T18:52:00.765Z,16.20
2022-10-31T18:54:27.503Z,16.20
2022-10-31T18:56:54.786Z,16.10
2022-10-31T18:59:21.882Z,16.10
2022-10-31T19:01:48.758Z,16.10
2022-10-31T19:04:15.553Z,16.00
2022-10-31T19:06:42.246Z,16.00
2022-10-31T19:09:09.728Z,16.00
2022-10-31T19:11:37.391Z,16.00
2022-10-31T19:14:04.587Z,16.00
2022-10-31T19:16:31.823Z,16.00
2022-10-31T19:18:59.945Z,16.00
2022-10-31T19:21:27.259Z,16.00
2022-10-31T19:23:56.312Z,16.00
2022-10-31T19:26:23.337Z,16.00
2022-10-31T19:28:50.145Z,15.90
2022-10-31T19:31:18.848Z,15.90
2022-10-31T19:33:46.400Z,15.90
2022-10-31T19:36:15.449Z,15.90
2022-10-31T19:38:44.222Z,15.90
2022-10-31T19:41:23.344Z,15.90
2022-10-31T19:43:50.827Z,15.90
2022-10-31T19:46:22.671Z,15.80
2022-10-31T19:49:05.469Z,15.80
2022-10-31T19:51:32.194Z,15.80
2022-10-31T19:53:58.992Z,15.80
2022-10-31T19:56:26.136Z,15.80
2022-10-31T19:58:53.287Z,15.80
2022-10-31T20:01:23.094Z,15.80
2022-10-31T20:03:50.321Z,15.80
2022-10-31T20:06:29.356Z,15.70
2022-10-31T20:08:56.628Z,15.70
2022-10-31T20:11:26.291Z,15.80
2022-10-31T20:13:58.103Z,15.70
2022-10-31T20:16:25.795Z,15.70
2022-10-31T20:18:52.806Z,15.70
2022-10-31T20:21:22.510Z,15.70
2022-10-31T20:23:49.599Z,15.70
2022-10-31T20:26:18.887Z,15.70
2022-10-31T20:28:46.575Z,15.70
2022-10-31T20:31:22.223Z,15.70
2022-10-31T20:33:49.499Z,15.70
2022-10-31T20:36:19.624Z,15.70
2022-10-31T20:38:47.160Z,15.70
2022-10-31T20:41:15.101Z,15.70
2022-10-31T20:43:42.140Z,15.70
2022-10-31T20:46:17.888Z,15.70
2022-10-31T20:48:44.646Z,15.70
2022-10-31T20:51:23.156Z,15.70
2022-10-31T20:53:51.377Z,15.70
2022-10-31T20:56:19.723Z,15.70
2022-10-31T20:58:46.757Z,15.70
2022-10-31T21:01:19.411Z,15.70
2022-10-31T21:03:46.549Z,15.70
2022-10-31T21:06:13.858Z,15.70
2022-10-31T21:08:42.078Z,15.80
2022-10-31T21:11:11.396Z,15.70
2022-10-31T21:13:40.816Z,15.70
2022-10-31T21:16:13.448Z,15.70
2022-10-31T21:18:41.553Z,15.80
2022-10-31T21:21:10.163Z,15.70
2022-10-31T21:23:37.159Z,15.70
2022-10-31T21:26:14.062Z,15.70
2022-10-31T21:28:40.860Z,15.70
2022-10-31T21:31:10.194Z,15.70
2022-10-31T21:33:37.521Z,15.80
2022-10-31T21:36:05.337Z,15.80
2022-10-31T21:38:32.195Z,15.80
2022-10-31T21:41:04.289Z,15.80
2022-10-31T21:43:32.049Z,15.80
2022-10-31T21:46:12.277Z,15.80
2022-10-31T21:48:41.833Z,15.80
2022-10-31T21:51:10.313Z,15.80
2022-10-31T21:53:56.313Z,15.80
2022-10-31T21:56:24.155Z,15.90
2022-10-31T21:58:51.732Z,15.90
2022-10-31T22:01:19.076Z,15.90
2022-10-31T22:03:46.012Z,15.90
2022-10-31T22:06:13.402Z,16.00
2022-10-31T22:08:40.812Z,16.00
2022-10-31T22:11:10.137Z,16.00
2022-10-31T22:13:37.238Z,16.00
2022-10-31T22:16:06.084Z,16.00
2022-10-31T22:18:33.213Z,16.00
2022-10-31T22:21:08.773Z,16.00
2022-10-31T22:23:36.359Z,16.10
2022-10-31T22:26:04.781Z,16.00
2022-10-31T22:28:32.214Z,16.10
2022-10-31T22:30:59.032Z,16.10
2022-10-31T22:33:26.030Z,16.10
2022-10-31T22:35:52.735Z,16.20
2022-10-31T22:38:19.526Z,16.20
2022-10-31T22:40:49.767Z,16.20
2022-10-31T22:43:16.506Z,16.20
2022-10-31T22:45:43.212Z,16.20
2022-10-31T22:48:09.933Z,16.10
2022-10-31T22:50:36.738Z,16.00
2022-10-31T22:53:03.454Z,16.00
2022-10-31T22:55:30.316Z,16.00
2022-10-31T22:57:57.685Z,16.00
2022-10-31T23:00:24.464Z,15.90
2022-10-31T23:02:51.171Z,16.00
2022-10-31T23:05:17.998Z,16.00
2022-10-31T23:07:44.672Z,16.00
2022-10-31T23:10:11.417Z,16.00
2022-10-31T23:12:56.763Z,16.00
2022-10-31T23:15:23.447Z,16.00
2022-10-31T23:17:50.192Z,16.00
2022-10-31T23:20:16.953Z,16.00
2022-10-31T23:22:43.786Z,15.90
2022-10-31T23:25:10.661Z,15.90
2022-10-31T23:27:37.407Z,15.90
2022-10-31T23:30:05.777Z,16.00
2022-10-31T23:32:35.806Z,16.00
2022-10-31T23:35:06.079Z,16.00
2022-10-31T23:37:34.987Z,16.00
2022-10-31T23:40:01.977Z,16.00
2022-10-31T23:42:29.057Z,16.00
2022-10-31T23:44:56.140Z,16.00
2022-10-31T23:47:22.929Z,16.00
2022-10-31T23:49:50.637Z,16.00
2022-10-31T23:52:17.791Z,16.00
2022-10-31T23:54:44.585Z,16.00
2022-10-31T23:57:12.842Z,16.00
2022-10-31T23:59:39.594Z,16.00
